createdAt,value
2023-03-14T06:47:07.463Z,0
2023-03-14T06:48:47.768Z,0.123
2023-03-14T06:50:28.156Z,0.131
2023-03-14T06:52:08.517Z,0.139
2023-03-14T06:53:49.015Z,0.146
2023-03-14T06:55:29.406Z,0.152
2023-03-14T06:57:09.847Z,0.158
2023-03-14T06:58:50.511Z,0.164
2023-03-14T07:00:30.674Z,0.173
2023-03-14T07:02:11.039Z,0.182
2023-03-14T07:03:51.412Z,0.195
2023-03-14T07:05:31.846Z,0.207
2023-03-14T07:07:12.220Z,0.217
2023-03-14T07:08:52.617Z,0.23
2023-03-14T07:10:33.030Z,0.249
2023-03-14T07:12:13.503Z,0.269
2023-03-14T07:13:53.904Z,0.285
2023-03-14T07:15:34.421Z,0.301
2023-03-14T07:17:14.737Z,0.316
2023-03-14T07:18:55.199Z,0.33
2023-03-14T07:20:35.565Z,0.345
2023-03-14T07:22:15.975Z,0.361
2023-03-14T07:23:56.473Z,0.381
2023-03-14T07:25:36.890Z,0.405
2023-03-14T07:27:17.421Z,0.431
2023-03-14T07:28:57.772Z,0.458
2023-03-14T07:30:38.218Z,0.482
2023-03-14T07:32:18.653Z,0.504
2023-03-14T07:33:59.044Z,0.522
2023-03-14T07:35:39.524Z,0.537
2023-03-14T07:37:19.914Z,0.553
2023-03-14T07:39:00.344Z,0.569
2023-03-14T07:40:40.797Z,0.586
2023-03-14T07:42:21.177Z,0.604
2023-03-14T07:44:01.598Z,0.624
2023-03-14T07:45:43.070Z,0.649
2023-03-14T07:47:22.370Z,0.673
2023-03-14T07:49:02.812Z,0.698
2023-03-14T07:50:43.300Z,0.728
2023-03-14T07:52:23.679Z,0.753
2023-03-14T07:54:04.136Z,0.783
2023-03-14T07:55:44.626Z,0.821
2023-03-14T07:57:25.064Z,0.86
2023-03-14T07:59:05.553Z,0.895
2023-03-14T08:00:45.971Z,0.926
2023-03-14T08:02:26.489Z,0.957
2023-03-14T08:04:06.847Z,0.991
2023-03-14T08:05:47.267Z,1.015
2023-03-14T08:07:27.692Z,1.039
2023-03-14T08:09:08.145Z,1.062
2023-03-14T08:10:48.536Z,1.09
2023-03-14T08:12:28.960Z,1.129
2023-03-14T08:14:09.385Z,1.17
2023-03-14T08:15:49.825Z,1.209
2023-03-14T08:17:30.178Z,1.256
2023-03-14T08:19:10.575Z,1.316
2023-03-14T08:20:51.005Z,1.378
2023-03-14T08:22:31.437Z,1.436
2023-03-14T08:24:11.863Z,1.481
2023-03-14T08:25:52.254Z,1.529
2023-03-14T08:27:32.636Z,1.589
2023-03-14T08:29:12.997Z,1.683
2023-03-14T08:30:53.581Z,1.762
2023-03-14T08:32:33.875Z,1.807
2023-03-14T08:34:14.252Z,1.877
2023-03-14T08:35:54.726Z,1.951
2023-03-14T08:37:35.125Z,2.007
2023-03-14T08:39:15.543Z,2.085
2023-03-14T08:40:55.901Z,2.157
2023-03-14T08:42:36.381Z,2.197
2023-03-14T08:44:20.080Z,2.233
2023-03-14T08:45:57.207Z,2.283
2023-03-14T08:47:37.607Z,2.339
2023-03-14T08:49:18.078Z,2.387
2023-03-14T08:50:58.375Z,2.444
2023-03-14T08:52:38.861Z,2.514
2023-03-14T08:54:19.206Z,2.582
2023-03-14T08:55:59.635Z,2.644
2023-03-14T08:57:40.038Z,2.7
2023-03-14T08:59:20.469Z,2.75
2023-03-14T09:01:00.981Z,2.795
2023-03-14T09:02:41.406Z,2.846
2023-03-14T09:04:21.813Z,2.925
2023-03-14T09:06:02.106Z,3.014
2023-03-14T09:07:42.462Z,3.09
2023-03-14T09:09:22.851Z,3.143
2023-03-14T09:11:03.282Z,3.194
2023-03-14T09:12:43.575Z,3.257
2023-03-14T12:48:37.050Z,0
2023-03-14T12:50:17.281Z,10.201
2023-03-14T12:51:57.862Z,10.226
2023-03-14T12:53:38.324Z,10.253
2023-03-14T12:55:18.689Z,10.282
2023-03-14T12:56:59.230Z,10.312
2023-03-14T12:58:39.600Z,10.337
2023-03-14T13:00:20.042Z,10.362
2023-03-14T13:02:00.473Z,10.386
2023-03-14T13:03:40.819Z,10.415
2023-03-14T13:05:21.185Z,10.441
2023-03-14T13:07:01.603Z,10.465
2023-03-14T13:08:41.996Z,10.493
2023-03-14T13:10:22.403Z,10.521
2023-03-14T13:12:02.823Z,10.548
2023-03-14T13:13:43.196Z,10.571
2023-03-14T13:15:23.574Z,10.593
2023-03-14T13:17:25.132Z,10.612
2023-03-14T13:18:44.242Z,10.629
2023-03-14T13:20:24.606Z,10.646
2023-03-14T13:22:04.975Z,10.664
2023-03-14T13:23:45.427Z,10.685
2023-03-14T13:25:25.910Z,10.704
2023-03-14T13:27:06.258Z,10.726
2023-03-14T13:28:46.663Z,10.746
2023-03-14T13:30:27.056Z,10.765
2023-03-14T13:32:07.423Z,10.783
2023-03-14T13:33:47.744Z,10.801
2023-03-14T13:35:28.194Z,10.817
2023-03-14T13:37:08.603Z,10.835
2023-03-14T13:38:48.940Z,10.854
2023-03-14T13:40:29.385Z,10.875
2023-03-14T13:42:09.717Z,10.897
2023-03-14T13:43:50.034Z,10.925
2023-03-14T13:45:30.451Z,10.954
2023-03-14T13:47:10.908Z,10.989
2023-03-14T13:48:51.302Z,11.03
2023-03-14T13:50:31.642Z,11.072
2023-03-14T13:52:11.881Z,11.107
2023-03-14T13:53:52.225Z,11.14
2023-03-14T13:55:32.710Z,11.17
2023-03-14T13:57:13.052Z,11.204
2023-03-14T13:58:53.340Z,11.239
2023-03-14T14:00:33.925Z,11.277
2023-03-14T14:02:16.045Z,11.316
2023-03-14T14:03:54.643Z,11.349
2023-03-14T14:05:35.153Z,11.389
2023-03-14T14:07:15.575Z,11.433
2023-03-14T14:08:55.985Z,11.475
2023-03-14T14:10:36.385Z,11.514
2023-03-14T14:12:17.481Z,11.542
2023-03-14T14:13:57.145Z,11.57
2023-03-14T14:15:37.597Z,11.613
2023-03-14T14:17:17.970Z,11.66
2023-03-14T14:18:58.380Z,11.705
2023-03-14T14:20:38.864Z,11.746
2023-03-14T14:22:19.221Z,11.784
2023-03-14T14:23:59.586Z,11.813
2023-03-14T14:25:39.946Z,11.838
2023-03-14T14:27:20.290Z,11.862
2023-03-14T14:29:00.711Z,11.884
2023-03-14T14:30:41.159Z,11.905
2023-03-14T14:32:21.594Z,11.923
2023-03-14T14:34:02.234Z,11.937
2023-03-14T14:35:42.467Z,11.947
2023-03-14T14:37:22.878Z,11.957
2023-03-14T14:39:03.264Z,11.972
2023-03-14T14:40:43.732Z,11.992
2023-03-14T14:42:24.115Z,12.013
2023-03-14T14:44:04.537Z,12.032
2023-03-14T14:45:44.919Z,12.049
2023-03-14T14:47:25.255Z,12.064
2023-03-14T14:49:05.644Z,12.079
2023-03-14T14:50:46.050Z,12.094
2023-03-14T14:52:28.448Z,12.108
2023-03-14T14:54:06.983Z,12.124
2023-03-14T14:55:47.405Z,12.14
2023-03-14T14:59:00.961Z,0
2023-03-14T15:00:40.976Z,12.185
2023-03-14T15:02:21.272Z,12.2
2023-03-14T15:04:01.805Z,12.213
2023-03-14T15:05:42.267Z,12.226
2023-03-14T15:07:22.647Z,12.243
2023-03-14T15:09:03.028Z,12.262
2023-03-14T15:10:43.489Z,12.286
2023-03-14T15:12:23.839Z,12.318
2023-03-14T15:14:04.283Z,12.354
2023-03-14T15:15:44.569Z,12.392
2023-03-14T15:17:25.001Z,12.433
2023-03-14T15:19:17.911Z,12.476
2023-03-14T15:20:45.848Z,12.512
2023-03-14T15:22:26.190Z,12.54
2023-03-14T15:24:06.656Z,12.568
2023-03-14T15:25:55.501Z,12.596
2023-03-14T15:27:27.424Z,12.621
2023-03-14T15:29:07.823Z,12.644
2023-03-14T15:30:48.318Z,12.668
2023-03-14T15:32:28.700Z,12.697
2023-03-14T15:34:09.077Z,12.729
2023-03-14T15:35:49.515Z,12.766
2023-03-14T15:37:29.911Z,12.801
2023-03-14T15:39:10.346Z,12.83
2023-03-14T15:40:50.831Z,12.855
2023-03-14T15:42:31.156Z,12.875
2023-03-14T15:44:11.629Z,12.892
2023-03-14T15:45:52.119Z,12.903
2023-03-14T15:47:32.373Z,12.909
2023-03-14T15:49:12.816Z,12.912
2023-03-14T15:50:53.220Z,12.914
2023-03-14T15:52:33.548Z,12.916
2023-03-14T15:53:34.225Z,0
2023-03-14T15:54:42.406Z,0
2023-03-14T15:56:33.239Z,0
2023-03-14T16:29:18.162Z,0
2023-03-14T16:32:07.746Z,0
2023-03-14T16:34:59.085Z,0
2023-03-14T16:36:05.056Z,0
2023-03-14T16:37:20.765Z,0
2023-03-14T16:39:01.081Z,13.445
2023-03-14T16:40:41.517Z,13.463
2023-03-14T16:42:25.010Z,13.48
2023-03-14T16:44:02.380Z,13.496
2023-03-14T16:45:42.879Z,13.509
2023-03-14T16:47:23.174Z,13.521
2023-03-14T16:49:03.557Z,13.532
2023-03-14T16:50:43.897Z,13.54
2023-03-14T16:52:24.327Z,13.546
2023-03-14T16:54:04.768Z,13.551
2023-03-14T16:55:45.155Z,13.556
2023-03-14T16:57:28.643Z,13.562
2023-03-14T16:59:05.956Z,13.566
2023-03-14T17:00:46.372Z,13.568
2023-03-14T17:02:26.770Z,13.57
2023-03-14T17:04:07.154Z,13.572
2023-03-14T17:05:47.530Z,13.574
2023-03-14T17:07:27.963Z,13.575
2023-03-14T17:09:08.402Z,13.576
2023-03-14T17:10:48.780Z,13.577
2023-03-14T17:12:29.158Z,13.578
2023-03-14T17:14:09.466Z,13.579
2023-03-14T17:15:50.005Z,13.579
2023-03-14T17:17:30.301Z,13.579
2023-03-14T17:19:10.687Z,13.579
2023-03-14T17:20:51.069Z,13.579
2023-03-14T17:22:32.924Z,13.579
2023-03-14T17:24:11.865Z,13.579
2023-03-14T17:25:52.272Z,13.579
2023-03-14T17:27:32.650Z,13.579
2023-03-14T17:29:13.010Z,13.579
2023-03-14T17:30:53.463Z,13.579
2023-03-14T17:32:33.913Z,13.579
2023-03-14T17:34:14.240Z,13.579
2023-03-14T17:35:54.734Z,13.579
2023-03-14T17:37:35.112Z,13.579
2023-03-14T18:01:07.105Z,0
2023-03-14T18:02:59.266Z,0
2023-03-14T18:04:38.292Z,13.579
2023-03-14T18:10:02.876Z,0
2023-03-14T18:11:43.258Z,13.579
2023-03-14T18:13:23.619Z,13.579
2023-03-14T18:15:04.071Z,13.579
2023-03-14T18:16:44.503Z,13.579
2023-03-14T18:18:24.867Z,13.579
2023-03-14T18:20:05.417Z,13.579
2023-03-14T18:21:45.677Z,13.579
2023-03-14T18:23:26.008Z,13.579
2023-03-14T18:25:06.422Z,13.579
2023-03-14T18:26:46.761Z,13.579
2023-03-14T18:28:27.123Z,13.579
2023-03-14T18:30:07.594Z,13.579
2023-03-14T18:31:48.018Z,13.579
2023-03-14T18:33:28.411Z,13.579
2023-03-14T18:35:08.811Z,13.579
2023-03-14T18:36:49.235Z,13.579
2023-03-14T18:38:29.601Z,13.579
2023-03-14T18:40:13.147Z,13.579
2023-03-14T18:41:50.454Z,13.579
2023-03-14T18:43:31.778Z,13.579
2023-03-14T18:45:11.231Z,13.579
2023-03-14T18:46:51.854Z,13.579
2023-03-14T18:48:32.001Z,13.579
2023-03-14T18:50:12.356Z,13.579
2023-03-14T18:51:52.588Z,13.579
2023-03-14T18:53:33.719Z,13.579
2023-03-14T18:55:14.184Z,13.579
2023-03-14T18:56:54.519Z,13.579
2023-03-14T18:58:34.992Z,13.579
2023-03-14T19:00:15.426Z,13.579
2023-03-14T19:01:42.464Z,0
2023-03-14T19:04:52.102Z,0
2023-03-14T19:06:44.201Z,0
2023-03-14T19:08:10.728Z,0
2023-03-14T19:09:51.047Z,13.579
2023-03-14T19:11:31.469Z,13.579
2023-03-14T19:13:11.903Z,13.579
2023-03-14T19:14:53.164Z,13.579
2023-03-14T19:16:32.734Z,13.579
2023-03-14T19:18:12.998Z,13.579
2023-03-14T19:19:53.356Z,13.579
2023-03-14T19:21:33.751Z,13.579
2023-03-14T19:23:14.220Z,13.579
2023-03-14T19:24:57.668Z,13.579
2023-03-14T19:26:34.979Z,13.579
2023-03-14T19:28:15.371Z,13.579
2023-03-14T19:29:55.809Z,13.579
2023-03-14T19:31:36.291Z,13.579
2023-03-14T19:33:19.762Z,13.579
2023-03-14T19:34:57.175Z,13.579
2023-03-14T19:36:37.590Z,13.579
2023-03-14T19:38:18.029Z,13.579
2023-03-14T19:39:58.308Z,13.579
2023-03-14T19:41:38.723Z,13.579
2023-03-14T19:43:19.022Z,13.579
2023-03-14T19:44:59.318Z,13.579
2023-03-14T19:46:39.730Z,13.579
2023-03-14T19:48:21.125Z,13.579
2023-03-14T19:50:00.558Z,13.579
2023-03-14T19:51:40.947Z,13.579
2023-03-14T19:53:21.395Z,13.579
2023-03-14T19:55:01.787Z,13.579
2023-03-14T19:56:42.085Z,13.579
2023-03-14T19:58:22.459Z,13.579
2023-03-14T20:00:02.806Z,13.579
2023-03-14T20:01:43.296Z,13.579
2023-03-14T20:03:23.621Z,13.579
2023-03-14T20:05:06.106Z,13.579
2023-03-14T20:06:44.463Z,13.579
2023-03-14T20:08:24.853Z,13.579
2023-03-14T20:10:05.295Z,13.579
2023-03-14T20:11:45.703Z,13.579
2023-03-14T20:13:26.075Z,13.579
2023-03-14T20:15:06.420Z,13.579
2023-03-14T20:16:46.991Z,13.579
2023-03-14T20:18:27.238Z,13.579
2023-03-14T20:20:07.641Z,13.579
2023-03-14T20:21:48.053Z,13.579
2023-03-14T20:23:28.437Z,13.579
2023-03-14T20:25:08.816Z,13.579
2023-03-14T20:26:49.286Z,13.579
2023-03-14T20:28:29.656Z,13.579
2023-03-14T20:30:10.004Z,13.579
2023-03-14T20:31:50.406Z,13.579
2023-03-14T20:33:30.825Z,13.579
2023-03-14T20:35:11.209Z,13.579
2023-03-14T20:36:51.534Z,13.579
2023-03-14T20:38:34.871Z,13.579
2023-03-14T20:40:12.132Z,13.579
2023-03-14T20:41:52.572Z,13.579
2023-03-14T20:43:33.018Z,13.579
2023-03-14T20:45:13.344Z,13.579
2023-03-14T20:46:54.381Z,13.579
2023-03-14T20:48:34.205Z,13.579
2023-03-14T20:50:14.611Z,13.579
2023-03-14T20:51:55.002Z,13.579
2023-03-14T20:53:35.416Z,13.579
2023-03-14T20:55:15.740Z,13.579
2023-03-14T20:56:56.166Z,13.579
2023-03-14T20:58:36.656Z,13.579
2023-03-14T21:00:17.115Z,13.579
2023-03-14T21:01:57.579Z,13.579
2023-03-14T21:03:37.971Z,13.579
2023-03-14T21:05:18.410Z,13.579
2023-03-14T21:06:58.788Z,13.579
2023-03-14T21:08:39.314Z,13.579
2023-03-14T21:10:19.594Z,13.579
2023-03-14T21:11:59.898Z,13.579
2023-03-14T21:13:40.211Z,13.579
2023-03-14T21:15:20.513Z,13.579
2023-03-14T21:17:00.806Z,13.579
2023-03-14T21:18:41.213Z,13.579
2023-03-14T21:20:21.456Z,13.579
2023-03-14T21:22:01.796Z,13.579
2023-03-14T21:23:41.997Z,13.579
2023-03-14T21:25:22.319Z,13.579
2023-03-14T21:27:02.666Z,13.579
2023-03-14T21:28:42.915Z,13.579
2023-03-14T21:30:23.232Z,13.579
2023-03-14T21:32:03.534Z,13.579
2023-03-14T21:33:43.830Z,13.579
2023-03-14T21:35:24.196Z,13.579
2023-03-14T21:37:04.456Z,13.579
2023-03-14T21:38:44.729Z,13.579
2023-03-14T21:40:25.058Z,13.579
2023-03-14T21:42:05.354Z,13.579
2023-03-14T21:43:45.650Z,13.579
2023-03-14T21:45:25.963Z,13.579
2023-03-14T21:47:06.236Z,13.579
2023-03-14T21:48:46.550Z,13.579
2023-03-14T21:50:26.885Z,13.579
2023-03-14T21:52:07.301Z,13.579
2023-03-14T21:53:47.768Z,13.579
2023-03-14T21:55:28.213Z,13.579
2023-03-14T21:57:08.657Z,13.579
2023-03-14T21:58:49.071Z,13.579
2023-03-14T22:00:29.503Z,13.579
2023-03-14T22:02:09.935Z,13.579
2023-03-14T22:03:50.214Z,13.579
2023-03-14T22:05:30.648Z,13.579
2023-03-14T22:07:11.077Z,13.579
2023-03-14T22:08:51.512Z,13.579
2023-03-14T22:10:32.017Z,13.579
2023-03-14T22:12:12.425Z,13.579
2023-03-14T22:13:52.867Z,13.579
2023-03-14T22:15:33.299Z,13.579
2023-03-14T22:17:13.727Z,13.579
2023-03-14T22:18:54.097Z,13.579
2023-03-14T22:20:34.454Z,13.579
2023-03-14T22:22:14.741Z,13.579
2023-03-14T22:23:55.041Z,13.579
2023-03-14T22:25:35.355Z,13.579
2023-03-14T22:27:15.664Z,13.579
2023-03-14T22:28:55.982Z,13.579
2023-03-14T22:30:36.256Z,13.579
2023-03-14T22:32:16.579Z,13.579
2023-03-14T22:33:56.909Z,13.579
2023-03-14T22:35:37.220Z,13.579
2023-03-14T22:37:17.485Z,13.579
2023-03-14T22:38:57.757Z,13.579
2023-03-14T22:40:38.067Z,13.579
2023-03-14T22:42:18.390Z,13.579
2023-03-14T22:43:58.674Z,13.579
2023-03-14T22:45:39.006Z,13.579
2023-03-14T22:47:19.279Z,13.579
2023-03-14T22:48:59.675Z,13.579
2023-03-14T22:50:40.115Z,13.579
2023-03-14T22:52:20.446Z,13.579
2023-03-14T22:54:00.811Z,13.579
2023-03-14T22:55:41.278Z,13.579
2023-03-14T22:57:21.641Z,13.579
2023-03-14T22:59:02.069Z,13.579
2023-03-14T23:00:42.539Z,0
2023-03-14T23:02:22.854Z,0
2023-03-14T23:04:03.269Z,0
2023-03-14T23:05:43.695Z,0
2023-03-14T23:07:24.097Z,0
2023-03-14T23:09:04.430Z,0
2023-03-14T23:10:44.905Z,0
2023-03-14T23:12:25.405Z,0
2023-03-14T23:14:05.848Z,0
2023-03-14T23:15:46.326Z,0
2023-03-14T23:17:26.714Z,0
2023-03-14T23:19:07.042Z,0
2023-03-14T23:20:48.161Z,0
2023-03-14T23:22:27.646Z,0
2023-03-14T23:24:07.960Z,0
2023-03-14T23:25:53.289Z,0
2023-03-14T23:27:28.591Z,0
2023-03-14T23:29:08.858Z,0
2023-03-14T23:30:49.170Z,0
2023-03-14T23:32:29.490Z,0
2023-03-14T23:34:09.793Z,0
2023-03-14T23:35:50.141Z,0
2023-03-14T23:37:30.434Z,0
2023-03-14T23:39:10.846Z,0
2023-03-14T23:40:51.382Z,0
2023-03-14T23:42:31.660Z,0
2023-03-14T23:44:12.067Z,0
2023-03-14T23:45:52.488Z,0
2023-03-14T23:47:32.955Z,0
2023-03-14T23:49:13.449Z,0
2023-03-14T23:50:53.887Z,0
2023-03-14T23:52:34.214Z,0
2023-03-14T23:54:14.735Z,0
2023-03-14T23:55:55.071Z,0
2023-03-14T23:57:35.434Z,0
2023-03-14T23:59:15.837Z,0
